Time;durP1;ratioP1;P1;durP2;ratioP2;P2;SDS_P1;SDS_P2;PMS_P1;PMS_P2;Temp;Humidity;BMP_temperature;BMP_pressure;BME280_temperature;BME280_humidity;BME280_pressure;Samples;Min_cycle;Max_cycle;Signal;HPM_P1;HPM_P2
2022/07/28 00:01:23;;;;;;;6.90;3.00;;;;;;;23.81;51.08;99162.58;25082;1314;3051007;-61
2022/07/28 00:03:53;;;;;;;4.80;3.40;;;;;;;23.80;51.15;99165.69;25078;1315;3026097;-61
2022/07/28 00:06:23;;;;;;;4.00;3.10;;;;;;;23.78;51.12;99166.89;25096;1315;3026598;-65
2022/07/28 00:08:53;;;;;;;3.70;2.60;;;;;;;23.76;51.01;99162.63;25016;1314;3026387;-67
2022/07/28 00:11:23;;;;;;;5.30;2.90;;;;;;;23.77;51.25;99163.46;25066;1313;3052810;-60
2022/07/28 00:13:55;;;;;;;4.70;2.80;;;;;;;23.75;51.38;99164.42;25100;1315;3028393;-63
2022/07/28 00:16:24;;;;;;;5.30;3.50;;;;;;;23.72;51.48;99163.08;25073;1314;3026271;-62
2022/07/28 00:18:53;;;;;;;4.20;3.00;;;;;;;23.71;51.62;99166.81;25089;1314;3055341;-62
2022/07/28 00:21:23;;;;;;;5.40;3.00;;;;;;;23.70;51.61;99164.95;25083;1315;3026455;-61
2022/07/28 00:23:52;;;;;;;5.60;2.90;;;;;;;23.69;51.67;99168.55;25068;1314;3051081;-63
2022/07/28 00:26:22;;;;;;;4.70;3.00;;;;;;;23.67;51.24;99170.38;25069;1315;3026782;-64
2022/07/28 00:28:51;;;;;;;6.70;3.00;;;;;;;23.69;51.13;99172.85;25046;1315;3026520;-63
2022/07/28 00:31:22;;;;;;;3.90;2.80;;;;;;;23.69;51.09;99171.54;25076;1315;3026843;-64
2022/07/28 00:33:51;;;;;;;4.40;2.60;;;;;;;23.68;50.89;99174.00;25036;1315;3026360;-62
2022/07/28 00:36:20;;;;;;;7.60;3.00;;;;;;;23.67;50.81;99174.60;25118;1315;3053341;-61
2022/07/28 00:38:50;;;;;;;4.30;2.40;;;;;;;23.69;50.29;99171.02;25073;1315;3026289;-63
2022/07/28 00:41:19;;;;;;;5.20;2.40;;;;;;;23.70;49.96;99173.61;25051;1315;3026880;-64
2022/07/28 00:43:50;;;;;;;7.20;3.50;;;;;;;23.70;49.98;99165.72;25086;1314;3053550;-63
2022/07/28 00:46:20;;;;;;;5.50;3.40;;;;;;;23.71;49.97;99169.13;25040;1315;3026637;-61
2022/07/28 00:48:51;;;;;;;7.20;3.30;;;;;;;23.71;50.57;99170.44;25054;1315;3027481;-62
2022/07/28 00:51:22;;;;;;;6.60;4.20;;;;;;;23.67;51.69;99171.83;25161;1314;3027460;-71
2022/07/28 00:53:52;;;;;;;8.30;4.60;;;;;;;23.57;52.89;99170.83;25061;1315;3026527;-65
2022/07/28 00:56:21;;;;;;;11.60;4.50;;;;;;;23.49;52.91;99175.13;25044;1315;3027533;-63
2022/07/28 00:58:50;;;;;;;7.70;4.30;;;;;;;23.44;52.50;99172.05;25075;1315;3026696;-60
2022/07/28 01:01:19;;;;;;;9.30;3.90;;;;;;;23.43;52.21;99170.17;25037;1315;3054107;-62
2022/07/28 01:03:54;;;;;;;10.10;5.30;;;;;;;23.42;53.36;99169.41;25030;1315;3026933;-62
2022/07/28 01:06:30;;;;;;;8.50;4.80;;;;;;;23.34;54.91;99171.27;25063;1315;3049755;-63
2022/07/28 01:09:28;;;;;;;12.90;7.00;;;;;;;23.22;55.37;99167.33;25002;1317;3057675;-62
2022/07/28 01:12:10;;;;;;;21.40;10.50;;;;;;;23.13;55.28;99166.36;25072;1315;3055054;-62
2022/07/28 01:14:50;;;;;;;17.70;8.30;;;;;;;23.07;54.63;99167.58;25024;1315;3070922;-64
2022/07/28 01:17:32;;;;;;;24.20;11.00;;;;;;;23.02;55.89;99168.48;25045;1316;3048678;-62
2022/07/28 01:20:36;;;;;;;;;;;;;;;22.96;54.51;99169.48;25069;1315;3052683;-62
2022/07/28 01:23:11;;;;;;;10.90;5.90;;;;;;;22.92;53.38;99174.00;25023;1315;3052687;-65
2022/07/28 01:26:19;;;;;;;13.20;6.20;;;;;;;23.00;52.99;99173.08;25044;1316;3059328;-63
2022/07/28 01:29:02;;;;;;;19.10;8.30;;;;;;;23.07;52.81;99175.86;25038;1315;3052100;-65
2022/07/28 01:31:55;;;;;;;19.40;8.30;;;;;;;23.06;52.95;99173.11;25104;1315;3055327;-62
2022/07/28 01:34:33;;;;;;;17.40;9.00;;;;;;;23.07;53.05;99174.58;25050;1315;3050483;-64
2022/07/28 01:37:10;;;;;;;18.30;6.20;;;;;;;23.08;53.29;99173.36;25020;1317;3071257;-62
2022/07/28 01:39:40;;;;;;;11.80;6.20;;;;;;;23.08;53.30;99175.80;25039;1315;3049424;-65
2022/07/28 01:42:09;;;;;;;11.20;5.70;;;;;;;23.09;53.46;99175.89;25043;1315;3027141;-63
2022/07/28 01:44:40;;;;;;;12.40;5.90;;;;;;;23.10;53.41;99174.70;25107;1315;3026558;-62
2022/07/28 01:47:11;;;;;;;11.30;5.80;;;;;;;23.10;53.41;99178.63;25093;1315;3051228;-64
2022/07/28 01:49:40;;;;;;;7.70;4.90;;;;;;;23.09;53.60;99173.50;25091;1315;3026653;-60
2022/07/28 01:52:09;;;;;;;8.90;5.00;;;;;;;23.08;53.61;99174.84;25400;1315;3026247;-61
2022/07/28 01:54:39;;;;;;;8.20;5.80;;;;;;;23.07;53.88;99172.76;25125;1315;3050884;-65
2022/07/28 01:57:09;;;;;;;9.00;5.60;;;;;;;23.07;53.89;99174.05;25043;1318;3026620;-62
2022/07/28 01:59:39;;;;;;;12.50;6.00;;;;;;;23.06;54.21;99178.14;25055;1314;3026965;-60
2022/07/28 02:02:08;;;;;;;11.80;7.10;;;;;;;23.05;54.30;99182.70;25142;1315;3026114;-62
2022/07/28 02:04:38;;;;;;;12.70;7.50;;;;;;;23.02;54.66;99178.54;25017;1315;3054153;-62
2022/07/28 02:07:08;;;;;;;14.50;8.10;;;;;;;23.03;54.48;99177.60;25085;1315;3026692;-62
2022/07/28 02:09:42;;;;;;;11.80;7.80;;;;;;;23.02;54.84;99178.50;25070;1315;3056873;-60
2022/07/28 02:12:12;;;;;;;14.80;7.60;;;;;;;23.00;55.14;99179.33;25071;1315;3027243;-63
2022/07/28 02:14:42;;;;;;;11.60;7.30;;;;;;;22.98;55.03;99184.41;25127;1316;3026616;-61
2022/07/28 02:17:14;;;;;;;11.20;8.20;;;;;;;22.98;55.12;99188.52;25040;1315;3028668;-62
2022/07/28 02:19:44;;;;;;;17.50;9.30;;;;;;;22.99;55.08;99187.17;25058;1315;3026082;-62
2022/07/28 02:22:13;;;;;;;13.10;9.50;;;;;;;22.98;55.49;99190.48;25039;1316;3026844;-61
2022/07/28 02:24:43;;;;;;;17.10;9.70;;;;;;;22.99;55.56;99190.92;25036;1315;3027249;-62
2022/07/28 02:27:18;;;;;;;13.50;9.00;;;;;;;23.00;55.94;99192.35;25093;1315;3026702;-63
2022/07/28 02:30:07;;;;;;;15.50;8.50;;;;;;;23.03;56.29;99198.09;25033;1315;3057555;-60
2022/07/28 02:32:43;;;;;;;19.70;9.80;;;;;;;23.06;56.46;99198.11;25029;1315;3049587;-62
2022/07/28 02:35:29;;;;;;;13.30;10.20;;;;;;;23.07;56.28;99197.54;25018;1315;3053029;-62
2022/07/28 02:38:05;;;;;;;17.90;12.60;;;;;;;23.09;56.85;99201.61;25109;1315;3051511;-64
2022/07/28 02:40:36;;;;;;;15.20;11.90;;;;;;;23.10;56.31;99203.45;25070;1315;3068131;-65
2022/07/28 02:43:08;;;;;;;16.30;12.00;;;;;;;23.13;56.13;99205.09;25090;1315;3026503;-62
2022/07/28 02:45:40;;;;;;;16.10;12.40;;;;;;;23.16;56.40;99205.52;25055;1315;3026677;-64
2022/07/28 02:48:10;;;;;;;15.90;12.00;;;;;;;23.17;56.70;99204.56;25033;1315;3027204;-62
2022/07/28 02:50:41;;;;;;;17.60;12.10;;;;;;;23.18;56.59;99204.05;25109;1315;3026661;-65
2022/07/28 02:53:10;;;;;;;15.70;9.70;;;;;;;23.21;56.17;99206.53;25070;1315;3028438;-65
2022/07/28 02:55:40;;;;;;;11.60;6.60;;;;;;;23.20;56.17;99211.70;25054;1315;3027121;-65
2022/07/28 02:58:09;;;;;;;9.20;6.20;;;;;;;23.15;55.73;99212.01;25033;1315;3026522;-62
2022/07/28 03:00:39;;;;;;;13.10;6.60;;;;;;;23.16;55.74;99214.33;25004;1318;3051662;-61
2022/07/28 03:03:07;;;;;;;12.50;6.10;;;;;;;23.15;55.73;99212.78;25045;1315;3026740;-61
2022/07/28 03:05:39;;;;;;;13.60;7.50;;;;;;;23.13;55.65;99216.54;25067;1315;3026692;-64
2022/07/28 03:08:08;;;;;;;21.00;9.90;;;;;;;23.12;55.80;99217.38;25071;1315;3049698;-65
2022/07/28 03:10:37;;;;;;;23.80;9.90;;;;;;;23.10;55.82;99217.79;25037;1315;3026455;-62
2022/07/28 03:13:06;;;;;;;24.40;11.40;;;;;;;23.04;56.17;99217.40;25114;1315;3057131;-65
2022/07/28 03:15:38;;;;;;;21.30;9.90;;;;;;;23.01;56.47;99218.34;25065;1315;3026386;-65
2022/07/28 03:18:08;;;;;;;21.00;10.70;;;;;;;22.97;56.59;99217.66;25101;1315;3026454;-63
2022/07/28 03:20:38;;;;;;;22.30;9.70;;;;;;;22.95;56.32;99221.08;25139;1315;3026716;-62
2022/07/28 03:23:08;;;;;;;22.60;9.90;;;;;;;22.88;56.66;99228.73;25033;1314;3026327;-67
2022/07/28 03:25:46;;;;;;;21.00;10.10;;;;;;;22.87;57.33;99223.09;25082;1315;3055418;-65
2022/07/28 03:28:18;;;;;;;21.30;9.30;;;;;;;22.85;57.60;99226.09;25038;1315;3052114;-64
2022/07/28 03:30:53;;;;;;;21.40;9.90;;;;;;;22.83;57.97;99234.50;25037;1315;3029848;-65
2022/07/28 03:33:22;;;;;;;23.90;10.00;;;;;;;22.82;58.00;99232.70;25121;1315;3049662;-64
2022/07/28 03:35:51;;;;;;;20.60;10.70;;;;;;;22.83;58.28;99235.36;25056;1315;3026431;-63
2022/07/28 03:38:23;;;;;;;25.80;10.90;;;;;;;22.85;58.31;99229.10;25068;1315;3069278;-68
2022/07/28 03:40:53;;;;;;;24.30;11.40;;;;;;;22.86;58.43;99235.09;25093;1315;3027601;-66
2022/07/28 03:43:24;;;;;;;23.30;12.10;;;;;;;22.85;58.88;99234.08;25033;1316;3026538;-61
2022/07/28 03:45:53;;;;;;;28.40;14.00;;;;;;;22.87;58.85;99235.98;25091;1315;3026572;-66
2022/07/28 03:48:30;;;;;;;32.20;14.40;;;;;;;22.87;59.12;99236.38;25031;1315;3026761;-63
2022/07/28 03:50:59;;;;;;;32.20;13.70;;;;;;;22.91;59.10;99239.84;25059;1316;3051603;-68
2022/07/28 03:53:28;;;;;;;35.10;14.60;;;;;;;22.91;59.08;99240.30;25091;1315;3026092;-62
2022/07/28 03:55:57;;;;;;;33.40;17.00;;;;;;;22.90;59.51;99248.48;25147;1315;3058469;-65
2022/07/28 03:58:27;;;;;;;37.50;17.00;;;;;;;22.89;59.84;99250.05;25041;1315;3026749;-64
2022/07/28 04:00:56;;;;;;;34.80;15.90;;;;;;;22.90;60.06;99250.45;25121;1315;3051924;-65
2022/07/28 04:03:25;;;;;;;39.70;17.80;;;;;;;22.96;59.99;99252.98;25090;1315;3026777;-66
2022/07/28 04:05:54;;;;;;;36.30;17.30;;;;;;;23.03;59.92;99250.46;25066;1315;3026296;-65
2022/07/28 04:08:26;;;;;;;37.00;16.70;;;;;;;23.09;59.94;99247.03;25110;1315;3052839;-63
2022/07/28 04:10:55;;;;;;;38.60;16.60;;;;;;;23.15;60.25;99247.73;25059;1316;3026637;-63
2022/07/28 04:13:24;;;;;;;34.60;15.90;;;;;;;23.22;59.95;99246.28;25092;1315;3056178;-61
2022/07/28 04:15:55;;;;;;;31.30;14.70;;;;;;;23.28;59.91;99250.02;25044;1315;3026503;-67
2022/07/28 04:18:24;;;;;;;31.50;14.80;;;;;;;23.32;60.07;99250.90;25092;1314;3026968;-62
2022/07/28 04:20:54;;;;;;;34.90;15.80;;;;;;;23.37;59.96;99253.30;25115;1315;3052628;-62
2022/07/28 04:23:24;;;;;;;30.20;15.80;;;;;;;23.42;60.07;99251.61;25105;1315;3026974;-64
2022/07/28 04:25:54;;;;;;;32.40;14.70;;;;;;;23.47;60.08;99255.14;25056;1315;3026178;-65
2022/07/28 04:28:23;;;;;;;28.30;15.30;;;;;;;23.50;60.07;99251.48;25029;1315;3026462;-62
2022/07/28 04:30:52;;;;;;;29.10;15.20;;;;;;;23.56;60.18;99256.77;25070;1316;3030090;-62
2022/07/28 04:33:23;;;;;;;35.70;15.10;;;;;;;23.62;60.00;99257.77;25080;1315;3026367;-62
2022/07/28 04:35:53;;;;;;;33.90;16.20;;;;;;;23.68;60.23;99260.10;25016;1315;3049791;-62
2022/07/28 04:38:22;;;;;;;36.40;22.10;;;;;;;23.75;60.15;99263.73;25101;1315;3026693;-65
2022/07/28 04:40:51;;;;;;;41.90;24.50;;;;;;;23.82;59.62;99260.70;25048;1315;3056962;-66
2022/07/28 04:43:20;;;;;;;38.80;23.00;;;;;;;23.86;59.25;99262.91;25085;1315;3028653;-67
2022/07/28 04:45:50;;;;;;;38.30;22.50;;;;;;;23.91;59.18;99261.48;25102;1315;3026717;-61
2022/07/28 04:48:19;;;;;;;36.10;21.80;;;;;;;23.97;59.09;99262.70;25021;1315;3026747;-63
2022/07/28 04:50:50;;;;;;;36.90;19.60;;;;;;;24.04;58.84;99266.25;25069;1314;3051883;-61
2022/07/28 04:53:20;;;;;;;31.30;19.50;;;;;;;24.11;58.65;99267.71;25068;1315;3026607;-61
2022/07/28 04:55:50;;;;;;;26.70;17.70;;;;;;;24.18;58.32;99271.21;25063;1315;3027146;-63
2022/07/28 04:58:19;;;;;;;26.60;17.50;;;;;;;24.25;57.93;99276.80;25039;1314;3026448;-62
2022/07/28 05:00:49;;;;;;;29.20;17.90;;;;;;;24.33;57.50;99274.63;25073;1315;3026858;-67
2022/07/28 05:03:18;;;;;;;31.90;17.00;;;;;;;24.37;57.40;99274.81;25063;1315;3053315;-61
2022/07/28 05:05:48;;;;;;;29.60;15.30;;;;;;;24.41;57.24;99282.70;25048;1315;3026405;-63
2022/07/28 05:08:17;;;;;;;20.50;14.40;;;;;;;24.42;57.18;99279.74;25126;1315;3027546;-62
2022/07/28 05:10:48;;;;;;;27.60;14.40;;;;;;;24.48;57.13;99274.36;25028;1315;3053858;-64
2022/07/28 05:13:18;;;;;;;18.30;12.30;;;;;;;24.55;57.05;99274.73;25090;1315;3028899;-68
2022/07/28 05:15:47;;;;;;;16.20;10.60;;;;;;;24.63;56.73;99276.30;25067;1315;3052404;-63
2022/07/28 05:18:18;;;;;;;16.10;10.40;;;;;;;24.73;56.23;99279.80;25107;1314;3028234;-67
2022/07/28 05:20:47;;;;;;;20.00;10.60;;;;;;;24.80;55.98;99282.85;25081;1315;3026387;-62
2022/07/28 05:23:16;;;;;;;14.00;9.80;;;;;;;24.88;55.88;99288.30;25179;1314;3054729;-63
2022/07/28 05:25:46;;;;;;;12.90;8.80;;;;;;;24.95;55.49;99293.84;25096;1314;3027049;-62
2022/07/28 05:28:19;;;;;;;14.40;7.70;;;;;;;25.06;55.16;99286.43;25080;1315;3070784;-61
2022/07/28 05:30:48;;;;;;;12.20;7.70;;;;;;;25.13;54.90;99292.86;25083;1314;3028082;-66
2022/07/28 05:33:17;;;;;;;8.20;6.10;;;;;;;25.17;54.61;99295.09;25049;1316;3026698;-65
2022/07/28 05:35:56;;;;;;;17.00;13.00;;;;;;;25.19;54.21;99297.17;25084;1315;3070687;-61
2022/07/28 05:38:25;;;;;;;20.50;12.00;;;;;;;25.24;54.12;99295.69;24994;1314;3049721;-67
2022/07/28 05:40:55;;;;;;;14.00;10.60;;;;;;;25.32;54.07;99295.93;25089;1315;3026653;-63
2022/07/28 05:43:24;;;;;;;13.80;10.40;;;;;;;25.41;53.62;99299.81;25079;1315;3026507;-63
2022/07/28 05:45:53;;;;;;;14.10;10.10;;;;;;;25.43;53.50;99297.01;25080;1315;3051009;-62
2022/07/28 05:48:22;;;;;;;19.50;13.00;;;;;;;25.49;53.33;99295.36;25097;1315;3026982;-62
2022/07/28 05:50:53;;;;;;;18.70;13.30;;;;;;;25.56;53.43;99296.52;25091;1315;3070844;-63
2022/07/28 05:53:22;;;;;;;21.00;16.20;;;;;;;25.62;53.52;99293.81;25074;1315;3026794;-67
2022/07/28 05:55:51;;;;;;;36.60;20.10;;;;;;;25.69;53.50;99298.48;25047;1314;3026125;-67
2022/07/28 05:58:21;;;;;;;35.50;23.20;;;;;;;25.74;53.68;99300.52;25116;1315;3028241;-62
2022/07/28 06:00:50;;;;;;;38.10;23.80;;;;;;;25.78;53.42;99301.33;25127;1315;3026500;-70
2022/07/28 06:03:19;;;;;;;37.60;24.50;;;;;;;25.84;53.32;99297.81;25123;1315;3026514;-62
2022/07/28 06:05:50;;;;;;;41.80;25.70;;;;;;;25.90;53.21;99298.88;25098;1315;3054534;-64
2022/07/28 06:08:19;;;;;;;34.50;25.00;;;;;;;25.92;53.65;99299.15;25003;1317;3027585;-64
2022/07/28 06:13:52;;;;;;;;;;;;;;;26.03;52.45;99304.20;24977;1321;3054873;-62
2022/07/28 06:16:26;;;;;;;8.30;6.60;;;;;;;26.02;51.88;99305.64;25062;1316;3056684;-67
2022/07/28 06:18:55;;;;;;;16.70;7.10;;;;;;;26.01;51.21;99305.88;25041;1315;3026608;-61
2022/07/28 06:21:23;;;;;;;7.80;4.40;;;;;;;26.08;51.10;99312.77;25085;1314;3054555;-67
2022/07/28 06:23:54;;;;;;;12.60;5.50;;;;;;;26.07;50.53;99314.52;25105;1315;3026501;-64
2022/07/28 06:26:24;;;;;;;15.90;6.70;;;;;;;26.09;50.98;99312.55;25043;1315;3027302;-65
2022/07/28 06:28:53;;;;;;;8.00;4.90;;;;;;;26.18;51.09;99317.72;25270;1315;3026940;-63
2022/07/28 06:31:24;;;;;;;11.90;4.60;;;;;;;26.20;50.96;99318.06;25122;1315;3059141;-67
2022/07/28 06:33:53;;;;;;;7.20;4.30;;;;;;;26.21;50.92;99317.41;24702;1315;3621187;-63
2022/07/28 06:36:22;;;;;;;6.90;3.80;;;;;;;26.16;50.50;99316.71;25103;1315;3053601;-67
2022/07/28 06:38:51;;;;;;;8.60;4.20;;;;;;;26.19;50.29;99312.80;25161;1315;3026417;-64
2022/07/28 06:41:20;;;;;;;8.50;4.40;;;;;;;26.25;50.34;99314.11;25102;1315;3054326;-66
2022/07/28 06:43:51;;;;;;;9.30;4.80;;;;;;;26.41;50.38;99311.66;25067;1315;3028774;-70
2022/07/28 06:46:20;;;;;;;12.70;4.60;;;;;;;26.56;50.33;99313.75;25122;1315;3048731;-68
2022/07/28 06:48:50;;;;;;;4.70;4.20;;;;;;;26.66;49.89;99317.61;25097;1315;3026104;-67
2022/07/28 06:51:20;;;;;;;5.60;3.90;;;;;;;26.69;48.80;99319.83;25036;1315;3027086;-62
2022/07/28 06:53:49;;;;;;;6.40;3.30;;;;;;;26.71;48.15;99322.41;25066;1315;3052762;-61
2022/07/28 06:56:18;;;;;;;9.50;3.30;;;;;;;26.77;47.02;99317.67;25122;1315;3026487;-69
2022/07/28 06:58:48;;;;;;;7.60;3.40;;;;;;;26.83;47.37;99317.66;25080;1315;3070609;-64
2022/07/28 07:01:17;;;;;;;3.80;3.20;;;;;;;26.83;47.42;99312.39;25046;1315;3028224;-71
2022/07/28 07:03:47;;;;;;;8.20;3.60;;;;;;;26.91;47.33;99306.98;25009;1315;3028736;-65
2022/07/28 07:06:16;;;;;;;8.20;3.50;;;;;;;27.04;47.31;99300.30;25116;1315;3026575;-62
2022/07/28 07:08:47;;;;;;;8.50;4.00;;;;;;;27.16;47.71;99301.02;25105;1315;3052766;-67
2022/07/28 07:11:19;;;;;;;6.20;3.30;;;;;;;27.21;46.98;99304.38;25078;1315;3054897;-65
2022/07/28 07:13:48;;;;;;;8.40;3.40;;;;;;;27.25;46.63;99308.69;25046;1315;3026941;-66
2022/07/28 07:16:20;;;;;;;7.10;3.80;;;;;;;27.27;46.27;99315.95;25109;1315;3048983;-65
2022/07/28 07:18:51;;;;;;;4.90;3.20;;;;;;;27.31;46.21;99316.33;25057;1315;3026878;-63
2022/07/28 07:21:29;;;;;;;6.50;3.00;;;;;;;27.24;46.21;99319.15;25132;1313;3071091;-64
2022/07/28 07:23:58;;;;;;;4.50;3.00;;;;;;;27.21;46.17;99318.32;25065;1314;3026106;-66
2022/07/28 07:26:28;;;;;;;4.90;3.40;;;;;;;27.22;45.98;99319.81;25081;1315;3053520;-66
2022/07/28 07:28:58;;;;;;;6.90;3.30;;;;;;;27.13;46.24;99323.36;25045;1315;3026597;-66
2022/07/28 07:31:28;;;;;;;7.60;4.20;;;;;;;27.25;46.49;99326.45;25062;1316;3026191;-68
2022/07/28 07:33:57;;;;;;;5.60;3.80;;;;;;;27.42;46.16;99326.62;25101;1315;3027317;-63
2022/07/28 07:36:27;;;;;;;7.60;3.70;;;;;;;27.49;45.84;99327.42;25029;1315;3068946;-66
2022/07/28 07:38:56;;;;;;;10.50;4.60;;;;;;;27.52;45.95;99331.48;25095;1315;3026486;-64
2022/07/28 07:41:25;;;;;;;5.80;3.70;;;;;;;27.58;45.92;99331.77;25045;1315;3028816;-64
2022/07/28 07:43:54;;;;;;;7.80;4.00;;;;;;;27.67;45.72;99334.73;25059;1315;3027198;-68
2022/07/28 07:46:24;;;;;;;5.40;4.00;;;;;;;27.63;44.69;99338.09;25094;1315;3026605;-69
2022/07/28 07:48:54;;;;;;;4.80;3.70;;;;;;;27.72;44.35;99342.73;25091;1315;3054602;-66
2022/07/28 07:51:23;;;;;;;8.90;3.80;;;;;;;27.84;44.86;99343.59;25063;1315;3028994;-67
2022/07/28 07:53:52;;;;;;;6.80;4.10;;;;;;;27.74;45.23;99350.29;25122;1315;3048723;-62
2022/07/28 07:56:21;;;;;;;11.20;4.30;;;;;;;27.71;45.26;99349.30;25121;1315;3026638;-63
2022/07/28 07:58:51;;;;;;;9.70;4.50;;;;;;;27.66;45.66;99346.39;25092;1316;3070143;-64
2022/07/28 08:01:20;;;;;;;7.70;4.50;;;;;;;27.63;45.80;99345.48;25076;1314;3027271;-70
2022/07/28 08:03:50;;;;;;;6.10;3.30;;;;;;;27.66;45.38;99344.61;25145;1315;3026584;-67
2022/07/28 08:06:19;;;;;;;8.60;4.60;;;;;;;27.72;43.68;99345.14;25073;1315;3070967;-65
2022/07/28 08:08:49;;;;;;;9.10;4.40;;;;;;;27.80;43.98;99340.29;25060;1315;3027201;-64
2022/07/28 08:11:22;;;;;;;8.10;3.90;;;;;;;28.00;43.82;99339.06;25094;1315;3026286;-64
2022/07/28 08:13:52;;;;;;;5.60;4.10;;;;;;;28.17;43.31;99341.05;25144;1314;3026156;-66
2022/07/28 08:16:21;;;;;;;5.30;4.00;;;;;;;28.24;43.00;99345.69;25050;1314;3026477;-66
2022/07/28 08:18:52;;;;;;;6.40;4.10;;;;;;;28.32;43.25;99351.85;25093;1314;3026784;-66
2022/07/28 08:21:21;;;;;;;8.50;4.00;;;;;;;28.37;43.49;99348.27;25117;1315;3026634;-65
2022/07/28 08:23:51;;;;;;;4.80;4.10;;;;;;;28.54;43.36;99350.30;25051;1315;3058423;-66
2022/07/28 08:26:21;;;;;;;11.80;4.20;;;;;;;28.57;43.16;99343.49;25094;1315;3026593;-67
2022/07/28 08:28:50;;;;;;;6.90;4.10;;;;;;;28.63;43.26;99343.58;25089;1315;3028393;-63
2022/07/28 08:31:23;;;;;;;6.40;3.50;;;;;;;28.65;43.46;99336.63;25119;1315;3026541;-67
2022/07/28 08:33:52;;;;;;;8.60;4.30;;;;;;;28.79;43.22;99336.86;25140;1315;3026444;-68
2022/07/28 08:36:22;;;;;;;6.70;3.90;;;;;;;28.93;42.93;99340.92;25101;1315;3026839;-67
2022/07/28 08:38:51;;;;;;;6.10;4.30;;;;;;;28.96;42.66;99338.48;25125;1315;3026513;-64
2022/07/28 08:41:24;;;;;;;9.50;4.80;;;;;;;29.11;42.63;99336.86;25104;1315;3072696;-67
2022/07/28 08:43:53;;;;;;;6.50;3.90;;;;;;;29.25;42.34;99336.77;25049;1315;3051159;-63
2022/07/28 08:46:24;;;;;;;10.40;4.30;;;;;;;29.24;42.43;99337.95;25066;1316;3026601;-67
2022/07/28 08:48:53;;;;;;;6.20;4.20;;;;;;;29.36;42.61;99342.21;25059;1315;3027045;-63
2022/07/28 08:51:23;;;;;;;8.30;4.80;;;;;;;29.53;42.24;99340.20;25044;1316;3051199;-65
2022/07/28 08:53:52;;;;;;;7.30;5.00;;;;;;;29.44;41.80;99336.90;25146;1317;3026675;-68
2022/07/28 08:56:21;;;;;;;6.60;4.40;;;;;;;29.30;42.15;99337.27;25043;1316;3068755;-64
2022/07/28 08:58:49;;;;;;;6.30;4.10;;;;;;;29.29;41.33;99336.77;25125;1315;3026097;-64
2022/07/28 09:01:18;;;;;;;4.50;4.00;;;;;;;29.46;41.27;99330.15;25075;1315;3053578;-68
2022/07/28 09:03:48;;;;;;;8.20;4.50;;;;;;;29.60;41.40;99334.49;25182;1315;3026671;-64
2022/07/28 09:06:18;;;;;;;7.30;4.50;;;;;;;29.61;41.10;99327.86;25120;1315;3054935;-66
2022/07/28 09:08:47;;;;;;;11.10;5.50;;;;;;;29.81;41.18;99330.77;25031;1317;3027602;-66
2022/07/28 09:11:18;;;;;;;9.20;4.20;;;;;;;30.03;40.85;99332.89;25058;1315;3026305;-64
2022/07/28 09:13:47;;;;;;;6.40;4.50;;;;;;;30.25;40.67;99335.11;25040;1314;3026645;-68
2022/07/28 09:16:16;;;;;;;5.10;4.10;;;;;;;30.43;39.88;99332.61;25121;1315;3053641;-66
2022/07/28 09:18:45;;;;;;;7.20;4.50;;;;;;;30.45;39.21;99332.86;25021;1315;3026825;-65
2022/07/28 09:21:15;;;;;;;8.80;4.70;;;;;;;30.38;40.12;99332.25;25184;1316;3054966;-67
2022/07/28 09:23:46;;;;;;;10.30;4.10;;;;;;;30.33;39.90;99339.47;25065;1315;3026678;-63
2022/07/28 09:26:16;;;;;;;8.90;4.50;;;;;;;30.14;40.35;99338.89;25091;1316;3049177;-68
2022/07/28 09:28:51;;;;;;;5.40;4.40;;;;;;;29.82;40.69;99346.18;25088;1315;3027091;-67
2022/07/28 09:31:21;;;;;;;7.90;4.20;;;;;;;29.78;40.50;99343.79;25135;1315;3028942;-66
2022/07/28 09:33:59;;;;;;;8.60;4.70;;;;;;;29.92;40.39;99343.81;25082;1315;3027211;-66
2022/07/28 09:36:36;;;;;;;6.10;4.40;;;;;;;30.24;39.68;99343.91;25101;1315;3051564;-66
2022/07/28 09:39:05;;;;;;;8.20;4.90;;;;;;;30.44;39.24;99341.37;25040;1316;3052580;-67
2022/07/28 09:41:48;;;;;;;7.00;4.50;;;;;;;30.69;39.19;99342.08;25231;1315;3026337;-63
2022/07/28 09:44:18;;;;;;;5.50;4.20;;;;;;;30.73;39.30;99342.20;25045;1318;3058526;-65
2022/07/28 09:46:48;;;;;;;7.40;4.50;;;;;;;30.64;39.14;99347.60;25152;1316;3028704;-67
2022/07/28 09:49:18;;;;;;;8.20;4.50;;;;;;;30.36;39.49;99343.61;25185;1315;3026327;-64
2022/07/28 09:52:00;;;;;;;5.90;4.10;;;;;;;30.22;40.04;99349.06;25061;1315;3026985;-68
2022/07/28 09:54:29;;;;;;;6.90;4.50;;;;;;;30.15;40.30;99352.22;25129;1316;3049301;-65
2022/07/28 09:56:59;;;;;;;8.70;4.50;;;;;;;30.25;39.80;99344.94;25025;1315;3026507;-71
2022/07/28 09:59:44;;;;;;;5.80;4.20;;;;;;;30.52;39.07;99345.12;25115;1316;3026789;-69
2022/07/28 10:02:13;;;;;;;8.00;4.30;;;;;;;30.83;38.51;99346.70;25132;1315;3050094;-65
2022/07/28 10:04:43;;;;;;;5.10;3.70;;;;;;;30.85;38.03;99341.71;25001;1316;3026842;-65
2022/07/28 10:07:13;;;;;;;8.60;3.90;;;;;;;30.82;37.84;99340.55;25107;1315;3026687;-67
2022/07/28 10:10:04;;;;;;;6.70;4.20;;;;;;;30.82;37.79;99337.52;24996;1315;3050111;-65
2022/07/28 10:12:35;;;;;;;6.40;3.90;;;;;;;31.00;37.54;99340.29;25074;1315;3053778;-67
2022/07/28 10:17:59;;;;;;;7.90;4.20;;;;;;;30.64;37.20;99341.73;25005;1316;3068750;-67
2022/07/28 10:20:35;;;;;;;5.00;3.70;;;;;;;30.80;36.72;99334.27;25152;1315;3047815;-62
2022/07/28 10:23:05;;;;;;;5.40;4.10;;;;;;;30.97;36.20;99336.29;25147;1315;3028073;-67
2022/07/28 10:25:34;;;;;;;6.00;3.90;;;;;;;30.95;35.84;99334.47;25154;1315;3027808;-66
2022/07/28 10:28:04;;;;;;;6.50;4.10;;;;;;;30.94;36.39;99328.30;25031;1315;3026754;-66
2022/07/28 10:30:38;;;;;;;8.10;4.40;;;;;;;31.26;36.35;99331.27;25058;1315;3051454;-65
2022/07/28 10:33:13;;;;;;;8.20;4.00;;;;;;;31.42;36.28;99333.19;24998;1318;3052560;-63
2022/07/28 10:35:42;;;;;;;8.10;4.00;;;;;;;31.51;36.18;99327.88;25095;1314;3057382;-64
2022/07/28 10:38:12;;;;;;;8.50;5.00;;;;;;;31.62;36.09;99322.95;25041;1319;3026257;-66
2022/07/28 10:40:43;;;;;;;7.50;4.30;;;;;;;31.27;37.32;99325.81;25053;1315;3026510;-64
2022/07/28 10:43:12;;;;;;;7.90;4.40;;;;;;;31.21;37.49;99323.65;25118;1315;3026616;-63
2022/07/28 10:45:42;;;;;;;8.90;4.30;;;;;;;31.06;37.28;99335.35;25157;1318;3026901;-61
2022/07/28 10:48:11;;;;;;;6.50;4.80;;;;;;;31.03;37.42;99332.92;25036;1315;3026353;-66
2022/07/28 10:50:41;;;;;;;8.70;4.90;;;;;;;31.13;37.69;99335.39;24975;1314;3052422;-66
2022/07/28 10:53:10;;;;;;;6.40;5.30;;;;;;;31.43;37.39;99330.70;25057;1314;3026875;-66
2022/07/28 10:55:51;;;;;;;6.20;5.10;;;;;;;31.59;36.77;99330.52;25094;1318;3054858;-66
2022/07/28 10:58:35;;;;;;;10.20;4.70;;;;;;;31.94;36.41;99334.30;25032;1315;3051250;-65
2022/07/28 11:01:05;;;;;;;6.80;4.30;;;;;;;32.12;35.78;99333.02;25072;1315;3071120;-64
2022/07/28 11:03:38;;;;;;;4.80;3.90;;;;;;;32.13;34.53;99339.02;25092;1314;3026148;-63
2022/07/28 11:06:34;;;;;;;7.20;4.40;;;;;;;32.16;34.33;99327.34;25173;1314;3051890;-67
2022/07/28 11:09:16;;;;;;;7.30;4.60;;;;;;;32.44;35.20;99324.95;25079;1314;3069402;-62
2022/07/28 11:11:46;;;;;;;6.00;4.30;;;;;;;32.67;34.80;99326.77;25062;1314;3050070;-64
2022/07/28 11:14:21;;;;;;;6.60;4.40;;;;;;;32.65;34.66;99328.09;25086;1314;3028402;-66
2022/07/28 11:17:00;;;;;;;5.10;4.60;;;;;;;32.25;35.49;99330.36;25020;1315;3054592;-62
2022/07/28 11:19:50;;;;;;;4.90;4.10;;;;;;;32.05;35.52;99338.82;24992;1315;3059372;-66
2022/07/28 11:22:21;;;;;;;5.80;5.20;;;;;;;32.11;35.21;99335.71;25054;1315;3053017;-62
2022/07/28 11:24:55;;;;;;;5.40;4.30;;;;;;;32.17;35.21;99333.44;25102;1315;3026815;-68
2022/07/28 11:27:40;;;;;;;6.60;4.00;;;;;;;32.28;34.78;99335.44;25091;1315;3053854;-70
2022/07/28 11:30:10;;;;;;;8.90;4.40;;;;;;;32.56;33.84;99330.04;24972;1314;3071853;-61
2022/07/28 11:32:49;;;;;;;7.10;4.00;;;;;;;32.71;33.57;99326.38;25059;1315;3026659;-64
2022/07/28 11:35:38;;;;;;;7.00;4.00;;;;;;;32.82;33.57;99329.42;25076;1315;3055431;-64
2022/07/28 11:38:11;;;;;;;9.30;4.20;;;;;;;32.88;33.09;99326.05;25117;1315;3052403;-64